Terminal Aerodrome Forecast
Issued by NWS Pueblo, CO

Home | Current Version | Previous Version | Text Only | Print | Product List | Glossary On
Versions: 1 2 3 4 5 6 7 8 9 10 11 12 13 14 15 16 17 18 19 20 21 22 23 24 25 26 27 28 29 30 31 32 33 34 35 36
000
FTUS45 KPUB 292321
TAFPUB
TAF
KPUB 292321Z 3000/3024 05010KT P6SM VCTS SCT060CB SCT110 BKN150
      TEMPO 3000/3002 VRB20G35KT -TSRA BKN050CB
     FM300200 03010G20KT P6SM VCSH SCT060 BKN100
     FM301000 VRB05KT P6SM BKN025
     FM301800 15008KT P6SM SCT070 SCT150
     FM302200 13010KT P6SM VCTS SCT070CB BKN130=

USA.gov is the U.S. government's official web portal to all federal, state and local government web resources and services.